createdAt,value
2019-06-10T00:00:55.321Z,29.30
2019-06-10T00:01:55.477Z,23.00
2019-06-10T00:02:55.574Z,23.10
2019-06-10T00:03:55.497Z,23.90
2019-06-10T00:04:55.553Z,25.70
2019-06-10T00:05:55.662Z,27.70
2019-06-10T00:06:55.759Z,26.30
2019-06-10T00:07:55.820Z,24.80
2019-06-10T00:08:56.050Z,24.90
2019-06-10T00:09:56.100Z,25.40
2019-06-10T00:10:56.189Z,24.90
2019-06-10T00:11:54.837Z,24.00
2019-06-10T00:12:55.447Z,22.00
2019-06-10T00:13:54.790Z,20.90
2019-06-10T00:14:54.766Z,21.00
2019-06-10T00:15:54.745Z,21.00
2019-06-10T00:16:54.724Z,21.00
2019-06-10T00:18:17.276Z,20.10
2019-06-10T00:18:54.679Z,20.80
2019-06-10T00:19:54.656Z,19.40
2019-06-10T00:20:54.636Z,18.80
2019-06-10T00:21:54.613Z,19.20
2019-06-10T00:22:55.341Z,18.50
2019-06-10T00:23:54.569Z,19.10
2019-06-10T00:24:54.545Z,19.10
2019-06-10T00:25:54.523Z,17.70
2019-06-10T00:26:54.501Z,18.00
2019-06-10T00:27:54.478Z,18.10
2019-06-10T00:28:54.455Z,17.50
2019-06-10T00:29:54.434Z,17.00
2019-06-10T00:30:54.412Z,16.70
2019-06-10T00:31:54.388Z,17.60
2019-06-10T00:32:54.367Z,17.70
2019-06-10T00:33:54.345Z,18.90
2019-06-10T00:34:54.323Z,23.10
2019-06-10T00:35:54.300Z,31.80
2019-06-10T00:36:54.278Z,37.30
2019-06-10T00:37:54.257Z,40.40
2019-06-10T00:38:54.234Z,34.50
2019-06-10T00:39:54.211Z,34.60
2019-06-10T00:40:54.190Z,36.70
2019-06-10T00:41:54.167Z,33.50
2019-06-10T00:42:54.147Z,38.40
2019-06-10T00:43:54.123Z,39.00
2019-06-10T00:44:54.099Z,35.20
2019-06-10T00:45:54.078Z,34.70
2019-06-10T00:46:54.056Z,35.10
2019-06-10T00:48:07.582Z,35.80
2019-06-10T00:48:54.012Z,37.60
2019-06-10T00:49:53.990Z,43.60
2019-06-10T00:50:53.968Z,45.90
2019-06-10T00:51:53.945Z,46.60
2019-06-10T00:52:53.926Z,47.10
2019-06-10T00:53:53.901Z,42.70
2019-06-10T00:54:53.880Z,59.90
2019-06-10T00:55:53.857Z,60.00
2019-06-10T00:56:53.835Z,59.80
2019-06-10T00:57:53.813Z,52.50
2019-06-10T00:58:53.790Z,53.90
2019-06-10T00:59:53.768Z,53.00
2019-06-10T01:00:53.746Z,49.90
2019-06-10T01:01:53.725Z,47.50
2019-06-10T01:02:53.709Z,53.30
2019-06-10T01:03:53.681Z,47.20
2019-06-10T01:04:53.659Z,41.70
2019-06-10T01:05:53.635Z,45.10
2019-06-10T01:06:53.613Z,43.80
2019-06-10T01:07:53.590Z,42.30
2019-06-10T01:08:53.568Z,38.10
2019-06-10T01:09:53.546Z,36.20
2019-06-10T01:10:53.525Z,34.60
2019-06-10T01:11:53.501Z,37.30
2019-06-10T01:12:53.479Z,36.50
2019-06-10T01:13:53.459Z,34.80
2019-06-10T01:14:53.436Z,35.20
2019-06-10T01:15:53.412Z,34.40
2019-06-10T01:16:53.390Z,34.20
2019-06-10T01:17:53.371Z,34.40
2019-06-10T01:18:53.757Z,32.90
2019-06-10T01:19:53.329Z,34.10
2019-06-10T01:20:53.301Z,33.50
2019-06-10T01:21:54.780Z,33.20
2019-06-10T01:22:53.257Z,32.70
2019-06-10T01:23:53.234Z,33.10
2019-06-10T01:24:53.212Z,32.60
2019-06-10T01:25:53.190Z,32.20
2019-06-10T01:26:53.168Z,31.90
2019-06-10T01:27:53.146Z,31.30
2019-06-10T01:28:53.123Z,31.90
2019-06-10T01:29:53.101Z,31.80
2019-06-10T01:30:53.079Z,30.60
2019-06-10T01:31:53.056Z,31.30
2019-06-10T01:32:53.034Z,30.00
2019-06-10T01:33:53.019Z,31.00
2019-06-10T01:34:52.990Z,30.90
2019-06-10T01:35:52.967Z,30.30
2019-06-10T01:36:52.946Z,30.40
2019-06-10T01:37:52.923Z,29.60
2019-06-10T01:38:52.901Z,29.50
2019-06-10T01:39:52.879Z,30.30
2019-06-10T01:40:52.866Z,30.20
2019-06-10T01:41:52.833Z,28.60
2019-06-10T01:42:52.816Z,29.20
2019-06-10T01:43:52.789Z,28.00
2019-06-10T01:44:52.768Z,28.80
2019-06-10T01:45:52.746Z,28.00
2019-06-10T01:46:52.725Z,28.30
2019-06-10T01:47:52.703Z,27.20
2019-06-10T01:48:52.680Z,28.00
2019-06-10T01:49:52.659Z,26.90
2019-06-10T01:50:52.637Z,27.30
2019-06-10T01:51:52.614Z,28.10
2019-06-10T01:52:52.592Z,28.20
2019-06-10T01:53:52.570Z,27.70
2019-06-10T01:54:52.549Z,27.30
2019-06-10T01:55:52.526Z,27.00
2019-06-10T01:56:52.505Z,26.60
2019-06-10T01:57:52.482Z,27.70
2019-06-10T01:58:52.461Z,26.10
2019-06-10T01:59:52.439Z,26.00
2019-06-10T02:00:52.420Z,25.50
2019-06-10T02:01:52.401Z,25.60
2019-06-10T02:02:52.584Z,24.70
2019-06-10T02:03:52.356Z,24.60
2019-06-10T02:04:52.329Z,25.10
2019-06-10T02:05:53.057Z,24.50
2019-06-10T02:06:52.285Z,22.80
2019-06-10T02:07:52.264Z,24.50
2019-06-10T02:08:52.241Z,23.40
2019-06-10T02:09:52.220Z,22.40
2019-06-10T02:10:52.198Z,22.10
2019-06-10T02:11:52.175Z,22.80
2019-06-10T02:12:52.153Z,21.90
2019-06-10T02:13:52.132Z,21.80
2019-06-10T02:14:52.116Z,22.40
2019-06-10T02:15:52.087Z,21.90
2019-06-10T02:16:52.068Z,22.20
2019-06-10T02:17:52.043Z,20.60
2019-06-10T02:19:00.281Z,21.80
2019-06-10T02:19:51.999Z,21.30
2019-06-10T02:20:51.977Z,22.20
2019-06-10T02:21:51.966Z,21.50
2019-06-10T02:22:51.934Z,21.90
2019-06-10T02:23:52.189Z,22.20
2019-06-10T02:24:51.889Z,22.20
2019-06-10T02:25:51.871Z,22.20
2019-06-10T02:26:51.845Z,25.40
2019-06-10T02:27:51.822Z,25.10
2019-06-10T02:28:51.801Z,27.20
2019-06-10T02:29:51.779Z,26.80
2019-06-10T02:30:55.489Z,28.80
2019-06-10T02:31:52.289Z,32.10
2019-06-10T02:32:52.338Z,33.70
2019-06-10T02:33:52.629Z,35.30
2019-06-10T02:35:03.543Z,37.30
2019-06-10T02:35:53.808Z,34.60
2019-06-10T02:36:53.649Z,35.30
2019-06-10T02:37:53.940Z,36.40
2019-06-10T02:38:53.947Z,36.40
2019-06-10T02:39:54.142Z,37.30
2019-06-10T02:40:53.859Z,37.30
2019-06-10T02:41:53.548Z,36.10
2019-06-10T02:42:53.958Z,37.60
2019-06-10T02:43:53.413Z,36.60
2019-06-10T02:44:54.117Z,37.50
2019-06-10T02:45:53.183Z,38.70
2019-06-10T02:46:54.457Z,37.90
2019-06-10T02:47:53.294Z,37.30
2019-06-10T02:48:54.313Z,36.80
2019-06-10T02:49:59.050Z,36.40
2019-06-10T02:50:53.894Z,36.30
2019-06-10T02:51:53.789Z,34.40
2019-06-10T02:52:53.054Z,34.90
2019-06-10T02:53:53.860Z,35.40
2019-06-10T02:54:53.478Z,34.80
2019-06-10T02:55:53.916Z,34.60
2019-06-10T02:56:53.833Z,32.50
2019-06-10T02:57:53.293Z,32.40
2019-06-10T02:58:53.466Z,30.40
2019-06-10T02:59:54.329Z,28.70
2019-06-10T03:00:54.301Z,28.50
2019-06-10T03:01:53.610Z,28.60
2019-06-10T03:02:53.080Z,28.30
2019-06-10T03:03:54.157Z,28.50
2019-06-10T03:04:53.482Z,27.80
2019-06-10T03:05:53.691Z,27.70
2019-06-10T03:06:54.057Z,26.90
2019-06-10T03:07:53.254Z,26.80
2019-06-10T03:08:54.614Z,25.60
2019-06-10T03:09:53.819Z,26.00
2019-06-10T03:10:54.393Z,26.40
2019-06-10T03:11:53.497Z,26.20
2019-06-10T03:12:52.795Z,26.00
2019-06-10T03:13:53.028Z,26.00
2019-06-10T03:14:52.586Z,25.70
2019-06-10T03:15:52.189Z,25.40
2019-06-10T03:16:52.697Z,26.10
2019-06-10T03:17:52.164Z,25.20
2019-06-10T03:18:52.546Z,25.80
2019-06-10T03:19:53.446Z,24.20
2019-06-10T03:20:52.852Z,24.30
2019-06-10T03:21:52.143Z,24.80
2019-06-10T03:22:52.535Z,24.50
2019-06-10T03:23:52.988Z,24.50
2019-06-10T03:24:52.394Z,24.60
2019-06-10T03:25:52.694Z,24.70
2019-06-10T03:26:52.238Z,25.00
2019-06-10T03:27:52.460Z,24.50
2019-06-10T03:28:52.048Z,23.70
2019-06-10T03:29:52.578Z,22.20
2019-06-10T03:30:55.385Z,22.60
2019-06-10T03:31:54.735Z,23.20
2019-06-10T03:32:50.394Z,21.70
2019-06-10T03:33:53.921Z,22.30
2019-06-10T03:34:54.452Z,21.40
2019-06-10T03:35:52.305Z,20.60
2019-06-10T03:36:50.294Z,20.40
2019-06-10T03:37:52.691Z,21.00
2019-06-10T03:38:50.250Z,21.60
2019-06-10T03:39:50.230Z,20.90
2019-06-10T03:40:52.474Z,21.20
2019-06-10T03:41:50.184Z,20.40
2019-06-10T03:42:52.048Z,19.10
2019-06-10T03:43:50.139Z,19.90
2019-06-10T03:44:52.411Z,20.40
2019-06-10T03:45:50.095Z,20.20
2019-06-10T03:46:52.224Z,21.30
2019-06-10T03:47:50.051Z,21.10
2019-06-10T03:48:52.473Z,21.10
2019-06-10T03:49:53.528Z,20.40
2019-06-10T03:50:52.335Z,20.60
2019-06-10T03:51:52.611Z,20.80
2019-06-10T03:52:52.326Z,21.40
2019-06-10T03:53:49.919Z,20.80
2019-06-10T03:54:52.138Z,21.80
2019-06-10T03:55:49.875Z,20.60
2019-06-10T03:56:51.983Z,21.00
2019-06-10T03:57:49.831Z,19.70
2019-06-10T03:58:51.993Z,20.50
2019-06-10T03:59:49.788Z,21.10
2019-06-10T04:00:52.107Z,21.00
2019-06-10T04:01:49.742Z,19.60
2019-06-10T04:02:49.728Z,20.30
2019-06-10T04:03:49.697Z,20.30
2019-06-10T04:04:49.675Z,19.40
2019-06-10T04:05:49.655Z,19.80
2019-06-10T04:06:52.924Z,20.50
2019-06-10T04:07:49.609Z,19.70
2019-06-10T04:08:52.094Z,19.40
2019-06-10T04:09:49.568Z,19.90
2019-06-10T04:10:51.946Z,19.10
2019-06-10T04:11:49.520Z,19.50
2019-06-10T04:12:49.501Z,17.90
2019-06-10T04:13:49.477Z,18.00
2019-06-10T04:14:49.454Z,19.00
2019-06-10T04:15:49.478Z,18.20
2019-06-10T04:16:49.410Z,18.30
2019-06-10T04:17:49.400Z,18.00
2019-06-10T04:18:49.365Z,18.70
2019-06-10T04:20:06.953Z,18.20
2019-06-10T04:20:49.321Z,19.30
2019-06-10T04:21:49.300Z,19.50
2019-06-10T04:22:49.281Z,18.90
2019-06-10T04:23:49.255Z,18.10
2019-06-10T04:24:49.233Z,18.20
2019-06-10T04:25:49.211Z,19.60
2019-06-10T04:26:49.189Z,19.10
2019-06-10T04:27:49.167Z,19.00
2019-06-10T04:28:49.145Z,20.90
2019-06-10T04:29:49.123Z,19.00
2019-06-10T04:30:49.101Z,19.50
2019-06-10T04:31:49.081Z,19.00
2019-06-10T04:32:49.057Z,19.20
2019-06-10T04:33:49.035Z,19.30
2019-06-10T04:34:49.013Z,18.30
2019-06-10T04:35:48.990Z,19.20
2019-06-10T04:36:48.969Z,19.60
2019-06-10T04:37:48.947Z,19.10
2019-06-10T04:38:48.925Z,19.40
2019-06-10T04:39:48.903Z,20.00
2019-06-10T04:40:48.881Z,19.60
2019-06-10T04:41:48.862Z,20.40
2019-06-10T04:42:48.837Z,19.20
2019-06-10T04:43:48.815Z,19.70
2019-06-10T04:44:48.793Z,19.90
2019-06-10T04:45:48.770Z,20.60
2019-06-10T04:46:48.750Z,20.80
2019-06-10T04:47:48.728Z,20.30
2019-06-10T04:48:48.705Z,20.60
2019-06-10T04:49:48.682Z,20.90
2019-06-10T04:50:48.661Z,21.40
2019-06-10T04:51:48.638Z,21.30
2019-06-10T04:52:48.616Z,21.60
2019-06-10T04:53:48.597Z,20.80
2019-06-10T04:54:53.828Z,21.30
2019-06-10T04:55:48.549Z,21.40
2019-06-10T04:56:48.526Z,21.10
2019-06-10T04:57:48.508Z,21.00
2019-06-10T04:58:48.484Z,21.40
2019-06-10T04:59:48.460Z,21.20
2019-06-10T05:00:48.438Z,20.50
2019-06-10T05:01:48.416Z,20.70
2019-06-10T05:02:48.396Z,20.00
2019-06-10T05:03:48.371Z,20.60
2019-06-10T05:04:48.349Z,19.50
2019-06-10T05:05:48.326Z,19.30
2019-06-10T05:06:48.305Z,19.70
2019-06-10T05:07:48.283Z,18.70
2019-06-10T05:08:48.261Z,18.60
2019-06-10T05:09:48.240Z,19.20
2019-06-10T05:10:48.217Z,18.70
2019-06-10T05:11:48.194Z,17.60
2019-06-10T05:12:48.172Z,17.70
2019-06-10T05:13:48.151Z,18.20
2019-06-10T05:14:48.128Z,18.90
2019-06-10T05:15:48.106Z,18.40
2019-06-10T05:16:48.084Z,18.30
2019-06-10T05:17:48.063Z,18.80
2019-06-10T05:18:51.514Z,19.40
2019-06-10T05:19:48.018Z,18.80
2019-06-10T05:20:56.021Z,18.40
2019-06-10T05:21:47.973Z,18.00
2019-06-10T05:22:48.704Z,18.50
2019-06-10T05:23:47.941Z,17.40
2019-06-10T05:24:47.907Z,18.00
2019-06-10T05:25:47.885Z,17.40
2019-06-10T05:26:47.864Z,17.20
2019-06-10T05:27:47.851Z,17.20
2019-06-10T05:28:47.820Z,16.70
2019-06-10T05:29:47.798Z,16.90
2019-06-10T05:30:47.782Z,16.80
2019-06-10T05:31:47.754Z,17.00
2019-06-10T05:32:47.733Z,17.20
2019-06-10T05:33:47.711Z,17.10
2019-06-10T05:34:47.689Z,17.20
2019-06-10T05:35:47.666Z,17.00
2019-06-10T05:36:47.645Z,17.30
2019-06-10T05:37:47.623Z,16.50
2019-06-10T05:38:47.602Z,16.30
2019-06-10T05:39:47.580Z,17.00
2019-06-10T05:40:47.558Z,17.00
2019-06-10T05:41:50.111Z,15.90
2019-06-10T05:42:47.515Z,16.70
2019-06-10T05:43:47.492Z,15.30
2019-06-10T05:44:47.482Z,16.30
2019-06-10T05:45:47.449Z,14.80
2019-06-10T05:46:47.427Z,14.50
2019-06-10T05:47:47.406Z,14.90
2019-06-10T05:48:47.383Z,15.40
2019-06-10T05:49:47.363Z,15.70
2019-06-10T05:50:59.276Z,16.50
2019-06-10T05:51:47.320Z,15.80
2019-06-10T05:52:47.299Z,15.30
2019-06-10T05:53:47.276Z,16.20
2019-06-10T05:54:47.256Z,16.30
2019-06-10T05:55:47.236Z,15.90
2019-06-10T05:56:47.214Z,17.00
2019-06-10T05:57:47.193Z,15.60
2019-06-10T05:58:47.171Z,15.90
2019-06-10T05:59:47.148Z,16.10
2019-06-10T06:00:48.629Z,16.50
2019-06-10T06:01:47.116Z,15.50
2019-06-10T06:02:47.085Z,16.90
2019-06-10T06:03:47.064Z,17.20
2019-06-10T06:04:47.042Z,16.70
2019-06-10T06:05:47.023Z,16.10
2019-06-10T06:06:47.000Z,17.40
2019-06-10T06:08:01.316Z,16.80
2019-06-10T06:08:46.957Z,17.70
2019-06-10T06:09:46.937Z,17.20
2019-06-10T06:10:46.915Z,17.80
2019-06-10T06:11:46.892Z,17.30
2019-06-10T06:12:46.872Z,17.60
2019-06-10T06:13:46.851Z,17.00
2019-06-10T06:14:46.831Z,18.00
2019-06-10T06:15:46.811Z,17.50
2019-06-10T06:16:46.786Z,17.70
2019-06-10T06:17:46.766Z,17.50
2019-06-10T06:18:46.746Z,17.70
2019-06-10T06:19:46.725Z,18.20
2019-06-10T06:20:46.702Z,18.50
2019-06-10T06:21:47.870Z,16.80
2019-06-10T06:22:46.662Z,17.50
2019-06-10T06:23:46.642Z,17.70
2019-06-10T06:24:46.620Z,17.10
2019-06-10T06:25:47.119Z,17.10
2019-06-10T06:26:46.579Z,17.50
2019-06-10T06:27:46.557Z,17.10
2019-06-10T06:28:46.537Z,17.30
2019-06-10T06:29:46.516Z,19.00
2019-06-10T06:30:46.495Z,17.80
2019-06-10T06:31:46.490Z,18.00
2019-06-10T06:32:46.461Z,17.60
2019-06-10T06:33:46.436Z,18.10
2019-06-10T06:34:46.414Z,18.50
2019-06-10T06:35:46.830Z,17.20
2019-06-10T06:36:46.370Z,18.10
2019-06-10T06:37:46.353Z,18.40
2019-06-10T06:38:46.329Z,18.60
2019-06-10T06:39:46.308Z,18.90
2019-06-10T06:40:46.287Z,18.70
2019-06-10T06:41:46.269Z,18.90
2019-06-10T06:42:46.247Z,17.80
2019-06-10T06:43:46.227Z,17.90
2019-06-10T06:44:46.209Z,18.60
2019-06-10T06:45:46.187Z,17.90
2019-06-10T06:46:46.165Z,17.10
2019-06-10T06:47:46.144Z,17.60
2019-06-10T06:48:46.124Z,17.50
2019-06-10T06:49:46.102Z,16.70
2019-06-10T06:51:00.300Z,17.30
2019-06-10T06:51:54.740Z,17.60
2019-06-10T06:53:15.493Z,17.00
2019-06-10T06:53:51.948Z,16.90
2019-06-10T06:54:46.001Z,16.90
2019-06-10T06:55:45.981Z,15.40
2019-06-10T06:56:45.961Z,16.80
2019-06-10T06:57:45.940Z,16.70
2019-06-10T06:58:45.920Z,16.80
2019-06-10T06:59:45.899Z,17.30
2019-06-10T07:01:00.299Z,16.80
2019-06-10T07:01:45.909Z,17.20
2019-06-10T07:02:45.839Z,17.40
2019-06-10T07:03:45.816Z,18.70
2019-06-10T07:04:45.798Z,18.00
2019-06-10T07:05:45.776Z,18.40
2019-06-10T07:06:45.765Z,16.80
2019-06-10T07:07:45.737Z,18.30
2019-06-10T07:09:00.448Z,17.50
2019-06-10T07:09:45.696Z,17.40
2019-06-10T07:10:45.677Z,18.40
2019-06-10T07:11:45.736Z,16.80
2019-06-10T07:12:45.638Z,15.60
2019-06-10T07:13:45.996Z,16.90
2019-06-10T07:14:45.596Z,16.70
2019-06-10T07:15:47.039Z,15.40
2019-06-10T07:16:46.518Z,15.70
2019-06-10T07:17:46.003Z,15.20
2019-06-10T07:18:50.113Z,16.80
2019-06-10T07:19:45.930Z,16.10
2019-06-10T07:20:45.933Z,16.10
2019-06-10T07:22:05.419Z,15.00
2019-06-10T07:22:46.522Z,16.10
2019-06-10T07:23:47.046Z,15.60
2019-06-10T07:24:47.536Z,15.70
2019-06-10T07:25:47.532Z,15.40
2019-06-10T07:26:54.035Z,16.00
2019-06-10T07:27:46.990Z,15.70
2019-06-10T07:28:47.445Z,16.10
2019-06-10T07:29:47.203Z,15.90
2019-06-10T07:30:51.213Z,16.40
2019-06-10T07:31:49.314Z,16.00
2019-06-10T07:32:47.535Z,16.70
2019-06-10T07:33:47.235Z,16.60
2019-06-10T07:34:47.035Z,14.60
2019-06-10T07:35:45.475Z,16.10
2019-06-10T07:36:45.548Z,15.80
2019-06-10T07:37:46.093Z,15.90
2019-06-10T07:38:48.270Z,14.80
2019-06-10T07:39:45.466Z,15.00
2019-06-10T07:40:45.801Z,15.40
2019-06-10T07:41:47.628Z,13.80
2019-06-10T07:42:45.519Z,14.30
2019-06-10T07:43:49.405Z,14.50
2019-06-10T07:44:45.386Z,13.10
2019-06-10T07:45:47.816Z,13.30
2019-06-10T07:46:45.707Z,14.50
2019-06-10T07:47:45.711Z,14.10
2019-06-10T07:48:47.859Z,13.90
2019-06-10T07:49:45.674Z,13.60
2019-06-10T07:50:45.855Z,13.90
2019-06-10T07:51:46.519Z,13.60
2019-06-10T07:52:46.740Z,13.90
2019-06-10T07:53:46.786Z,14.20
2019-06-10T07:54:45.339Z,13.20
2019-06-10T07:55:46.571Z,12.40
2019-06-10T07:56:50.263Z,13.10
2019-06-10T07:57:45.651Z,13.40
2019-06-10T07:58:47.678Z,14.10
2019-06-10T07:59:46.065Z,12.40
2019-06-10T08:00:48.221Z,12.10
2019-06-10T08:01:50.965Z,11.20
2019-06-10T08:02:46.073Z,10.90
2019-06-10T08:03:46.522Z,11.20
2019-06-10T08:04:46.085Z,11.50
2019-06-10T08:05:46.655Z,10.30
2019-06-10T08:06:45.856Z,10.40
2019-06-10T08:07:47.210Z,10.10
2019-06-10T08:08:45.456Z,10.50
2019-06-10T08:09:45.777Z,10.30
2019-06-10T08:10:46.033Z,11.60
2019-06-10T08:11:46.807Z,12.10
2019-06-10T08:12:46.649Z,12.50
2019-06-10T08:13:46.151Z,12.70
2019-06-10T08:14:45.696Z,12.40
2019-06-10T08:15:46.090Z,12.50
2019-06-10T08:16:48.652Z,13.20
2019-06-10T08:17:45.701Z,12.50
2019-06-10T08:19:14.357Z,12.80
2019-06-10T08:19:49.615Z,11.50
2019-06-10T08:20:45.221Z,11.80
2019-06-10T08:21:48.879Z,10.30
2019-06-10T08:22:54.343Z,9.70
2019-06-10T08:23:46.968Z,8.20
2019-06-10T08:24:45.407Z,7.90
2019-06-10T08:25:50.973Z,8.80
2019-06-10T08:26:45.602Z,9.30
2019-06-10T08:27:47.394Z,8.60
2019-06-10T08:28:46.469Z,8.90
2019-06-10T08:29:47.683Z,8.90
2019-06-10T08:30:45.875Z,8.80
2019-06-10T08:31:47.943Z,8.90
2019-06-10T08:32:46.812Z,9.10
2019-06-10T08:33:46.199Z,8.20
2019-06-10T08:34:46.245Z,8.90
2019-06-10T08:35:52.161Z,9.60
2019-06-10T08:36:47.232Z,8.30
2019-06-10T08:37:45.963Z,8.00
2019-06-10T08:38:46.818Z,7.80
2019-06-10T08:39:45.706Z,8.30
2019-06-10T08:40:45.369Z,8.50
2019-06-10T08:41:47.302Z,8.70
2019-06-10T08:42:46.793Z,8.40
2019-06-10T08:43:45.621Z,8.30
2019-06-10T08:44:45.629Z,7.80
2019-06-10T08:45:45.829Z,7.70
2019-06-10T08:46:45.653Z,7.50
2019-06-10T08:47:45.985Z,7.30
2019-06-10T08:48:46.157Z,7.60
2019-06-10T08:49:46.185Z,7.20
2019-06-10T08:50:48.096Z,7.70
2019-06-10T08:51:47.117Z,7.60
2019-06-10T08:52:53.790Z,7.20
2019-06-10T08:53:46.490Z,7.60
2019-06-10T08:54:48.918Z,7.10
2019-06-10T08:55:46.089Z,6.20
2019-06-10T08:56:47.648Z,6.40
2019-06-10T08:57:47.060Z,7.50
2019-06-10T08:58:47.368Z,6.60
2019-06-10T08:59:47.410Z,7.60
2019-06-10T09:00:46.052Z,7.30
2019-06-10T09:01:49.746Z,7.10
2019-06-10T09:02:45.968Z,5.70
2019-06-10T09:03:47.417Z,6.50
2019-06-10T09:04:46.023Z,5.30
2019-06-10T09:05:47.408Z,5.50
2019-06-10T09:06:47.469Z,5.90
2019-06-10T09:07:46.439Z,5.90
2019-06-10T09:08:46.375Z,6.00
2019-06-10T09:09:45.718Z,6.50
2019-06-10T09:10:46.234Z,6.30
2019-06-10T09:11:47.899Z,6.00
2019-06-10T09:12:46.015Z,6.10
2019-06-10T09:13:45.489Z,6.00
2019-06-10T09:14:45.249Z,6.20
2019-06-10T09:15:45.403Z,6.50
2019-06-10T09:16:46.098Z,6.70
2019-06-10T09:17:46.404Z,7.80
2019-06-10T09:18:46.481Z,8.00
2019-06-10T09:19:46.091Z,8.60
2019-06-10T09:20:46.393Z,7.80
2019-06-10T09:21:48.182Z,8.40
2019-06-10T09:22:47.250Z,7.60
2019-06-10T09:23:47.115Z,7.90
2019-06-10T09:24:48.746Z,9.50
2019-06-10T09:25:47.316Z,7.70
2019-06-10T09:26:45.131Z,7.30
2019-06-10T09:27:46.599Z,7.90
2019-06-10T09:28:47.169Z,10.00
2019-06-10T09:29:48.029Z,8.10
2019-06-10T09:30:48.955Z,7.30
2019-06-10T09:31:46.801Z,7.80
2019-06-10T09:32:48.439Z,7.60
2019-06-10T09:33:49.931Z,7.70
2019-06-10T09:34:47.169Z,7.30
2019-06-10T09:35:46.143Z,6.40
2019-06-10T09:36:46.601Z,7.70
2019-06-10T09:37:48.363Z,7.90
2019-06-10T09:38:47.111Z,8.60
2019-06-10T09:39:48.955Z,8.50
2019-06-10T09:40:48.410Z,8.50
2019-06-10T09:41:50.313Z,8.30
2019-06-10T09:42:46.229Z,8.60
2019-06-10T09:43:48.187Z,8.40
2019-06-10T09:44:45.909Z,9.40
2019-06-10T09:45:45.877Z,9.30
2019-06-10T09:46:45.995Z,8.50
2019-06-10T09:47:47.368Z,9.00
2019-06-10T09:48:47.091Z,10.70
2019-06-10T09:49:46.060Z,11.80
2019-06-10T09:50:48.742Z,10.00
2019-06-10T09:51:45.843Z,8.70
2019-06-10T09:52:47.234Z,9.50
2019-06-10T09:53:51.389Z,9.80
2019-06-10T09:54:47.250Z,9.60
2019-06-10T09:55:46.288Z,9.10
2019-06-10T09:56:45.113Z,8.90
2019-06-10T09:57:45.574Z,8.60
2019-06-10T09:58:46.016Z,9.00
2019-06-10T09:59:46.362Z,9.30
2019-06-10T10:00:47.294Z,9.40
2019-06-10T10:01:47.283Z,10.00
2019-06-10T10:02:46.437Z,9.30
2019-06-10T10:03:47.765Z,8.80
2019-06-10T10:04:46.768Z,9.70
2019-06-10T10:05:54.938Z,8.90
2019-06-10T10:06:46.653Z,9.40
2019-06-10T10:07:47.001Z,8.80
2019-06-10T10:08:46.039Z,9.10
2019-06-10T10:09:46.601Z,9.10
2019-06-10T10:10:46.006Z,9.60
2019-06-10T10:11:45.798Z,10.40
2019-06-10T10:12:44.490Z,10.50
2019-06-10T10:13:45.057Z,9.40
2019-06-10T10:14:46.040Z,9.00
2019-06-10T10:15:43.516Z,9.20
2019-06-10T10:16:46.111Z,9.90
2019-06-10T10:17:47.445Z,9.50
2019-06-10T10:18:45.803Z,9.50
2019-06-10T10:19:45.336Z,10.40
2019-06-10T10:20:44.842Z,9.60
2019-06-10T10:21:47.782Z,9.90
2019-06-10T10:22:44.399Z,9.40
2019-06-10T10:23:59.820Z,9.20
2019-06-10T10:24:42.897Z,9.70
2019-06-10T10:25:44.872Z,9.20
2019-06-10T10:26:43.356Z,10.50
2019-06-10T10:27:45.560Z,9.60
2019-06-10T10:28:42.804Z,9.90
2019-06-10T10:29:43.624Z,9.70
2019-06-10T10:30:43.586Z,9.10
2019-06-10T10:31:44.997Z,9.80
2019-06-10T10:32:44.332Z,8.60
2019-06-10T10:33:42.753Z,8.70
2019-06-10T10:34:43.776Z,8.60
2019-06-10T10:35:43.144Z,7.80
2019-06-10T10:36:44.995Z,7.70
2019-06-10T10:37:42.401Z,8.10
2019-06-10T10:38:42.601Z,8.50
2019-06-10T10:39:42.541Z,7.90
2019-06-10T10:40:43.997Z,8.20
2019-06-10T10:41:42.704Z,8.10
2019-06-10T10:42:47.864Z,7.80
2019-06-10T10:43:44.872Z,8.30
2019-06-10T10:44:46.222Z,8.30
2019-06-10T10:45:43.432Z,7.80
2019-06-10T10:46:42.820Z,7.50
2019-06-10T10:47:42.803Z,8.30
2019-06-10T10:48:42.829Z,8.20
2019-06-10T10:49:42.790Z,8.10
2019-06-10T10:50:43.516Z,8.40
2019-06-10T10:51:42.795Z,7.50
2019-06-10T10:52:42.888Z,7.60
2019-06-10T10:53:44.588Z,7.40
2019-06-10T10:54:43.184Z,6.90
2019-06-10T10:55:42.488Z,6.20
2019-06-10T10:56:44.634Z,5.90
2019-06-10T10:57:41.490Z,6.20
2019-06-10T10:58:43.628Z,6.90
2019-06-10T10:59:43.524Z,6.90
2019-06-10T11:00:41.430Z,6.70
2019-06-10T11:01:43.736Z,7.40
2019-06-10T11:02:43.200Z,7.10
2019-06-10T11:03:44.005Z,7.50
2019-06-10T11:04:42.693Z,7.40
2019-06-10T11:05:41.405Z,7.70
2019-06-10T11:06:43.019Z,7.80
2019-06-10T11:07:42.281Z,8.20
2019-06-10T11:08:44.199Z,8.50
2019-06-10T11:09:42.398Z,8.40
2019-06-10T11:10:45.304Z,8.00
2019-06-10T11:11:44.075Z,8.20
2019-06-10T11:12:42.932Z,8.40
2019-06-10T11:13:43.253Z,7.00
2019-06-10T11:14:42.483Z,7.80
2019-06-10T11:15:43.421Z,7.20
2019-06-10T11:16:43.089Z,6.80
2019-06-10T11:17:42.663Z,7.00
2019-06-10T11:18:42.325Z,6.20
2019-06-10T11:19:41.093Z,7.10
2019-06-10T11:20:41.075Z,6.40
2019-06-10T11:21:42.614Z,7.10
2019-06-10T11:22:43.280Z,7.50
2019-06-10T11:23:43.619Z,7.40
2019-06-10T11:24:44.404Z,7.90
2019-06-10T11:25:43.028Z,7.50
2019-06-10T11:26:43.217Z,8.00
2019-06-10T11:27:43.139Z,7.40
2019-06-10T11:28:42.323Z,8.00
2019-06-10T11:29:42.255Z,8.20
2019-06-10T11:30:42.611Z,8.40
2019-06-10T11:31:42.584Z,8.20
2019-06-10T11:32:43.238Z,8.10
2019-06-10T11:33:43.160Z,7.80
2019-06-10T11:34:42.923Z,7.80
2019-06-10T11:35:42.797Z,8.30
2019-06-10T11:36:42.492Z,7.70
2019-06-10T11:37:43.762Z,7.60
2019-06-10T11:38:40.753Z,8.50
2019-06-10T11:39:40.722Z,7.80
2019-06-10T11:40:42.841Z,9.10
2019-06-10T11:41:42.882Z,19.70
2019-06-10T11:42:43.558Z,22.00
2019-06-10T11:43:43.288Z,12.90
2019-06-10T11:44:42.537Z,14.80
2019-06-10T11:45:48.145Z,12.40
2019-06-10T11:46:42.848Z,9.70
2019-06-10T11:47:42.476Z,9.20
2019-06-10T11:48:43.152Z,10.10
2019-06-10T11:49:43.631Z,10.10
2019-06-10T11:50:42.841Z,11.00
2019-06-10T11:51:40.490Z,12.30
2019-06-10T11:52:43.181Z,14.40
2019-06-10T11:53:40.450Z,15.10
2019-06-10T11:54:53.634Z,15.40
2019-06-10T11:55:42.398Z,14.10
2019-06-10T11:56:42.149Z,12.50
2019-06-10T11:57:42.431Z,11.20
2019-06-10T11:58:42.721Z,11.20
2019-06-10T11:59:40.333Z,11.70
2019-06-10T12:00:42.511Z,11.90
2019-06-10T12:01:42.464Z,11.90
2019-06-10T12:02:42.357Z,11.50
2019-06-10T12:03:43.032Z,12.80
2019-06-10T12:04:40.233Z,13.30
2019-06-10T12:05:40.213Z,12.40
2019-06-10T12:06:42.407Z,11.80
2019-06-10T12:07:42.600Z,10.40
2019-06-10T12:08:40.157Z,10.50
2019-06-10T12:09:42.417Z,11.60
2019-06-10T12:10:40.112Z,10.70
2019-06-10T12:11:43.403Z,11.00
2019-06-10T12:12:40.072Z,12.30
2019-06-10T12:13:42.530Z,11.50
2019-06-10T12:14:40.032Z,12.30
2019-06-10T12:16:19.929Z,11.20
2019-06-10T12:17:49.898Z,10.30
2019-06-10T12:18:42.405Z,11.00
2019-06-10T12:19:39.936Z,11.70
2019-06-10T12:20:42.526Z,12.50
2019-06-10T12:21:39.891Z,11.90
2019-06-10T12:22:42.016Z,11.70
2019-06-10T12:23:39.850Z,10.50
2019-06-10T12:24:39.829Z,9.30
2019-06-10T12:25:39.936Z,8.70
2019-06-10T12:26:39.791Z,7.60
2019-06-10T12:27:39.770Z,7.30
2019-06-10T12:28:39.750Z,5.60
2019-06-10T12:29:42.174Z,5.90
2019-06-10T12:30:42.175Z,4.80
2019-06-10T12:31:39.692Z,4.50
2019-06-10T12:32:42.404Z,4.00
2019-06-10T12:33:39.650Z,4.20
2019-06-10T12:34:39.632Z,3.80
2019-06-10T12:35:42.153Z,4.20
2019-06-10T12:36:39.589Z,4.40
2019-06-10T12:37:39.570Z,3.90
2019-06-10T12:38:39.549Z,4.20
2019-06-10T12:39:42.049Z,4.40
2019-06-10T12:40:39.507Z,4.00
2019-06-10T12:41:39.537Z,4.10
2019-06-10T12:42:39.468Z,3.70
2019-06-10T12:43:39.447Z,4.40
2019-06-10T12:44:39.428Z,4.40
2019-06-10T12:45:39.407Z,4.20
2019-06-10T12:46:39.387Z,3.80
2019-06-10T12:47:39.366Z,4.00
2019-06-10T12:48:39.346Z,4.20
2019-06-10T12:49:39.327Z,4.50
2019-06-10T12:50:39.307Z,4.20
2019-06-10T12:51:39.303Z,4.00
2019-06-10T12:52:39.266Z,4.50
2019-06-10T12:53:39.245Z,4.10
2019-06-10T12:54:39.229Z,4.30
2019-06-10T12:55:43.220Z,4.20
2019-06-10T12:56:39.186Z,4.30
2019-06-10T12:57:39.166Z,4.60
2019-06-10T12:58:39.146Z,4.40
2019-06-10T12:59:39.125Z,3.80
2019-06-10T13:00:39.106Z,3.70
2019-06-10T13:01:39.127Z,4.50